sensor_id;sensor_type;location;lat;lon;timestamp;P1;durP1;ratioP1;P2;durP2;ratioP2
23800;SDS011;12081;48.614;10.226;2023-02-10T00:02:03;35.40;;;17.93;;
23800;SDS011;12081;48.614;10.226;2023-02-10T00:04:47;36.00;;;17.63;;
23800;SDS011;12081;48.614;10.226;2023-02-10T00:07:31;36.00;;;18.20;;
23800;SDS011;12081;48.614;10.226;2023-02-10T00:10:15;37.53;;;19.80;;
23800;SDS011;12081;48.614;10.226;2023-02-10T00:12:59;49.83;;;20.97;;
23800;SDS011;12081;48.614;10.226;2023-02-10T00:15:43;45.40;;;21.27;;
23800;SDS011;12081;48.614;10.226;2023-02-10T00:18:27;42.87;;;21.77;;
23800;SDS011;12081;48.614;10.226;2023-02-10T00:21:12;43.47;;;20.67;;
23800;SDS011;12081;48.614;10.226;2023-02-10T00:23:59;38.93;;;18.73;;
23800;SDS011;12081;48.614;10.226;2023-02-10T00:26:43;33.83;;;18.17;;
23800;SDS011;12081;48.614;10.226;2023-02-10T00:29:27;38.93;;;18.90;;
23800;SDS011;12081;48.614;10.226;2023-02-10T00:32:11;35.47;;;19.13;;
23800;SDS011;12081;48.614;10.226;2023-02-10T00:34:56;41.63;;;18.67;;
23800;SDS011;12081;48.614;10.226;2023-02-10T00:37:39;37.37;;;18.03;;
23800;SDS011;12081;48.614;10.226;2023-02-10T00:40:24;39.97;;;17.60;;
23800;SDS011;12081;48.614;10.226;2023-02-10T00:43:08;33.10;;;17.13;;
23800;SDS011;12081;48.614;10.226;2023-02-10T00:45:52;39.40;;;18.27;;
23800;SDS011;12081;48.614;10.226;2023-02-10T00:48:36;35.30;;;17.77;;
23800;SDS011;12081;48.614;10.226;2023-02-10T00:51:20;37.63;;;19.53;;
23800;SDS011;12081;48.614;10.226;2023-02-10T00:54:04;41.30;;;19.23;;
23800;SDS011;12081;48.614;10.226;2023-02-10T00:56:48;33.27;;;18.07;;
23800;SDS011;12081;48.614;10.226;2023-02-10T00:59:32;34.17;;;17.87;;
23800;SDS011;12081;48.614;10.226;2023-02-10T01:02:16;37.27;;;18.23;;
23800;SDS011;12081;48.614;10.226;2023-02-10T01:05:00;31.50;;;17.20;;
23800;SDS011;12081;48.614;10.226;2023-02-10T01:07:46;39.70;;;18.33;;
23800;SDS011;12081;48.614;10.226;2023-02-10T01:10:32;37.80;;;18.97;;
23800;SDS011;12081;48.614;10.226;2023-02-10T01:13:20;34.77;;;16.67;;
23800;SDS011;12081;48.614;10.226;2023-02-10T01:16:05;37.47;;;17.80;;
23800;SDS011;12081;48.614;10.226;2023-02-10T01:18:53;34.43;;;16.77;;
23800;SDS011;12081;48.614;10.226;2023-02-10T01:21:37;38.97;;;18.30;;
23800;SDS011;12081;48.614;10.226;2023-02-10T01:24:21;38.53;;;18.33;;
23800;SDS011;12081;48.614;10.226;2023-02-10T01:27:09;33.67;;;16.23;;
23800;SDS011;12081;48.614;10.226;2023-02-10T01:29:53;33.13;;;18.10;;
23800;SDS011;12081;48.614;10.226;2023-02-10T01:32:38;36.30;;;17.77;;
23800;SDS011;12081;48.614;10.226;2023-02-10T01:35:22;40.43;;;19.10;;
23800;SDS011;12081;48.614;10.226;2023-02-10T01:38:07;40.43;;;19.23;;
23800;SDS011;12081;48.614;10.226;2023-02-10T01:40:51;42.10;;;18.93;;
23800;SDS011;12081;48.614;10.226;2023-02-10T01:46:38;38.67;;;18.67;;
23800;SDS011;12081;48.614;10.226;2023-02-10T01:49:23;39.40;;;19.97;;
23800;SDS011;12081;48.614;10.226;2023-02-10T01:52:23;34.80;;;17.87;;
23800;SDS011;12081;48.614;10.226;2023-02-10T01:55:10;35.73;;;18.67;;
23800;SDS011;12081;48.614;10.226;2023-02-10T01:57:58;40.77;;;19.20;;
23800;SDS011;12081;48.614;10.226;2023-02-10T02:00:41;37.27;;;19.27;;
23800;SDS011;12081;48.614;10.226;2023-02-10T02:03:26;40.07;;;19.63;;
23800;SDS011;12081;48.614;10.226;2023-02-10T02:06:10;38.00;;;19.63;;
23800;SDS011;12081;48.614;10.226;2023-02-10T02:08:54;41.53;;;18.93;;
23800;SDS011;12081;48.614;10.226;2023-02-10T02:14:57;38.93;;;18.40;;
23800;SDS011;12081;48.614;10.226;2023-02-10T02:17:52;39.30;;;19.73;;
23800;SDS011;12081;48.614;10.226;2023-02-10T02:23:48;41.17;;;18.73;;
23800;SDS011;12081;48.614;10.226;2023-02-10T02:30:14;35.43;;;18.93;;
23800;SDS011;12081;48.614;10.226;2023-02-10T02:33:24;36.60;;;17.60;;
23800;SDS011;12081;48.614;10.226;2023-02-10T02:36:17;34.60;;;17.33;;
23800;SDS011;12081;48.614;10.226;2023-02-10T02:39:06;37.87;;;18.73;;
23800;SDS011;12081;48.614;10.226;2023-02-10T02:45:07;36.40;;;17.80;;
23800;SDS011;12081;48.614;10.226;2023-02-10T02:51:03;35.97;;;17.67;;
23800;SDS011;12081;48.614;10.226;2023-02-10T02:54:33;36.63;;;17.47;;
23800;SDS011;12081;48.614;10.226;2023-02-10T02:57:34;36.93;;;16.87;;
23800;SDS011;12081;48.614;10.226;2023-02-10T03:00:27;43.83;;;19.60;;
23800;SDS011;12081;48.614;10.226;2023-02-10T03:03:15;36.60;;;18.23;;
23800;SDS011;12081;48.614;10.226;2023-02-10T03:06:01;36.00;;;18.17;;
23800;SDS011;12081;48.614;10.226;2023-02-10T03:08:46;36.03;;;18.30;;
23800;SDS011;12081;48.614;10.226;2023-02-10T03:11:34;38.07;;;18.03;;
23800;SDS011;12081;48.614;10.226;2023-02-10T03:14:18;41.60;;;21.23;;
23800;SDS011;12081;48.614;10.226;2023-02-10T03:17:05;35.40;;;17.87;;
23800;SDS011;12081;48.614;10.226;2023-02-10T03:19:52;36.47;;;19.63;;
23800;SDS011;12081;48.614;10.226;2023-02-10T03:22:40;36.53;;;17.90;;
23800;SDS011;12081;48.614;10.226;2023-02-10T03:25:26;38.93;;;18.87;;
23800;SDS011;12081;48.614;10.226;2023-02-10T03:28:14;42.53;;;20.10;;
23800;SDS011;12081;48.614;10.226;2023-02-10T03:31:01;45.07;;;20.57;;
23800;SDS011;12081;48.614;10.226;2023-02-10T03:33:50;37.43;;;17.83;;
23800;SDS011;12081;48.614;10.226;2023-02-10T03:36:35;39.30;;;18.20;;
23800;SDS011;12081;48.614;10.226;2023-02-10T03:39:20;32.87;;;18.13;;
23800;SDS011;12081;48.614;10.226;2023-02-10T03:42:04;35.80;;;19.43;;
23800;SDS011;12081;48.614;10.226;2023-02-10T03:44:50;39.53;;;19.03;;
23800;SDS011;12081;48.614;10.226;2023-02-10T03:47:34;40.67;;;18.93;;
23800;SDS011;12081;48.614;10.226;2023-02-10T03:50:18;43.87;;;20.13;;
23800;SDS011;12081;48.614;10.226;2023-02-10T03:53:03;37.80;;;17.87;;
23800;SDS011;12081;48.614;10.226;2023-02-10T03:55:47;40.47;;;18.33;;
23800;SDS011;12081;48.614;10.226;2023-02-10T03:58:32;40.50;;;18.30;;
23800;SDS011;12081;48.614;10.226;2023-02-10T04:01:17;36.63;;;19.10;;
23800;SDS011;12081;48.614;10.226;2023-02-10T04:04:01;40.83;;;18.17;;
23800;SDS011;12081;48.614;10.226;2023-02-10T04:06:46;40.13;;;18.07;;
23800;SDS011;12081;48.614;10.226;2023-02-10T04:09:31;37.27;;;19.07;;
23800;SDS011;12081;48.614;10.226;2023-02-10T04:12:15;41.20;;;18.97;;
23800;SDS011;12081;48.614;10.226;2023-02-10T04:15:00;46.07;;;19.23;;
23800;SDS011;12081;48.614;10.226;2023-02-10T04:17:44;37.53;;;19.27;;
23800;SDS011;12081;48.614;10.226;2023-02-10T04:20:28;48.90;;;20.90;;
23800;SDS011;12081;48.614;10.226;2023-02-10T04:23:13;40.03;;;19.30;;
23800;SDS011;12081;48.614;10.226;2023-02-10T04:25:57;34.20;;;18.67;;
23800;SDS011;12081;48.614;10.226;2023-02-10T04:28:42;40.50;;;18.20;;
23800;SDS011;12081;48.614;10.226;2023-02-10T04:31:26;37.73;;;18.83;;
23800;SDS011;12081;48.614;10.226;2023-02-10T04:34:10;38.83;;;18.97;;
23800;SDS011;12081;48.614;10.226;2023-02-10T04:36:54;35.13;;;17.50;;
23800;SDS011;12081;48.614;10.226;2023-02-10T04:39:39;39.33;;;18.47;;
23800;SDS011;12081;48.614;10.226;2023-02-10T04:42:23;45.77;;;21.67;;
23800;SDS011;12081;48.614;10.226;2023-02-10T04:45:13;41.97;;;20.20;;
23800;SDS011;12081;48.614;10.226;2023-02-10T04:47:57;40.17;;;19.17;;
23800;SDS011;12081;48.614;10.226;2023-02-10T04:50:42;37.80;;;16.67;;
23800;SDS011;12081;48.614;10.226;2023-02-10T04:53:27;41.57;;;18.87;;
23800;SDS011;12081;48.614;10.226;2023-02-10T04:56:11;42.90;;;20.07;;
23800;SDS011;12081;48.614;10.226;2023-02-10T04:59:06;39.77;;;18.70;;
23800;SDS011;12081;48.614;10.226;2023-02-10T05:01:50;38.50;;;20.03;;
23800;SDS011;12081;48.614;10.226;2023-02-10T05:04:34;38.87;;;19.07;;
23800;SDS011;12081;48.614;10.226;2023-02-10T05:07:19;40.97;;;19.33;;
23800;SDS011;12081;48.614;10.226;2023-02-10T05:15:14;39.33;;;18.87;;
23800;SDS011;12081;48.614;10.226;2023-02-10T05:18:00;43.40;;;19.53;;
23800;SDS011;12081;48.614;10.226;2023-02-10T05:20:45;40.27;;;18.70;;
23800;SDS011;12081;48.614;10.226;2023-02-10T05:23:30;41.77;;;19.37;;
23800;SDS011;12081;48.614;10.226;2023-02-10T05:26:18;48.40;;;21.10;;
23800;SDS011;12081;48.614;10.226;2023-02-10T05:29:02;94.30;;;38.93;;
23800;SDS011;12081;48.614;10.226;2023-02-10T05:31:48;44.53;;;22.07;;
23800;SDS011;12081;48.614;10.226;2023-02-10T05:34:34;47.97;;;22.43;;
23800;SDS011;12081;48.614;10.226;2023-02-10T05:37:21;45.57;;;21.90;;
23800;SDS011;12081;48.614;10.226;2023-02-10T05:40:06;46.37;;;22.03;;
23800;SDS011;12081;48.614;10.226;2023-02-10T05:42:52;50.70;;;22.37;;
23800;SDS011;12081;48.614;10.226;2023-02-10T05:45:37;47.27;;;21.50;;
23800;SDS011;12081;48.614;10.226;2023-02-10T05:48:22;49.77;;;21.33;;
23800;SDS011;12081;48.614;10.226;2023-02-10T05:51:09;41.10;;;19.60;;
23800;SDS011;12081;48.614;10.226;2023-02-10T05:53:54;40.20;;;18.97;;
23800;SDS011;12081;48.614;10.226;2023-02-10T05:56:42;38.13;;;18.23;;
23800;SDS011;12081;48.614;10.226;2023-02-10T05:59:26;39.53;;;18.97;;
23800;SDS011;12081;48.614;10.226;2023-02-10T06:02:14;41.60;;;18.53;;
23800;SDS011;12081;48.614;10.226;2023-02-10T06:04:58;41.00;;;18.93;;
23800;SDS011;12081;48.614;10.226;2023-02-10T06:07:43;42.67;;;19.30;;
23800;SDS011;12081;48.614;10.226;2023-02-10T06:10:28;35.83;;;17.80;;
23800;SDS011;12081;48.614;10.226;2023-02-10T06:13:13;38.70;;;18.93;;
23800;SDS011;12081;48.614;10.226;2023-02-10T06:16:00;39.70;;;20.57;;
23800;SDS011;12081;48.614;10.226;2023-02-10T06:18:45;40.33;;;19.87;;
23800;SDS011;12081;48.614;10.226;2023-02-10T06:21:31;43.40;;;20.40;;
23800;SDS011;12081;48.614;10.226;2023-02-10T06:24:16;43.67;;;19.90;;
23800;SDS011;12081;48.614;10.226;2023-02-10T06:27:01;47.60;;;21.97;;
23800;SDS011;12081;48.614;10.226;2023-02-10T06:29:46;42.37;;;19.67;;
23800;SDS011;12081;48.614;10.226;2023-02-10T06:35:25;40.17;;;19.37;;
23800;SDS011;12081;48.614;10.226;2023-02-10T06:38:09;44.23;;;21.07;;
23800;SDS011;12081;48.614;10.226;2023-02-10T06:40:53;40.57;;;18.87;;
23800;SDS011;12081;48.614;10.226;2023-02-10T06:43:37;38.00;;;19.67;;
23800;SDS011;12081;48.614;10.226;2023-02-10T06:46:21;43.93;;;22.60;;
23800;SDS011;12081;48.614;10.226;2023-02-10T06:49:06;44.60;;;20.33;;
23800;SDS011;12081;48.614;10.226;2023-02-10T06:51:50;40.33;;;19.37;;
23800;SDS011;12081;48.614;10.226;2023-02-10T06:54:34;39.90;;;19.10;;
23800;SDS011;12081;48.614;10.226;2023-02-10T06:57:19;47.23;;;19.83;;
23800;SDS011;12081;48.614;10.226;2023-02-10T07:00:03;42.10;;;19.67;;
23800;SDS011;12081;48.614;10.226;2023-02-10T07:02:51;41.30;;;21.10;;
23800;SDS011;12081;48.614;10.226;2023-02-10T07:05:35;80.57;;;30.67;;
23800;SDS011;12081;48.614;10.226;2023-02-10T07:08:19;150.67;;;51.57;;
23800;SDS011;12081;48.614;10.226;2023-02-10T07:11:03;65.27;;;27.83;;
23800;SDS011;12081;48.614;10.226;2023-02-10T07:13:47;60.30;;;24.53;;
23800;SDS011;12081;48.614;10.226;2023-02-10T07:16:31;56.57;;;24.63;;
23800;SDS011;12081;48.614;10.226;2023-02-10T07:19:15;50.37;;;22.83;;
23800;SDS011;12081;48.614;10.226;2023-02-10T07:21:59;39.03;;;20.63;;
23800;SDS011;12081;48.614;10.226;2023-02-10T07:24:45;41.43;;;19.60;;
23800;SDS011;12081;48.614;10.226;2023-02-10T07:27:29;37.70;;;19.33;;
23800;SDS011;12081;48.614;10.226;2023-02-10T07:30:13;35.10;;;18.40;;
23800;SDS011;12081;48.614;10.226;2023-02-10T07:32:57;35.83;;;18.93;;
23800;SDS011;12081;48.614;10.226;2023-02-10T07:35:43;34.90;;;18.90;;
23800;SDS011;12081;48.614;10.226;2023-02-10T07:38:29;29.23;;;17.83;;
23800;SDS011;12081;48.614;10.226;2023-02-10T07:41:13;30.43;;;17.47;;
23800;SDS011;12081;48.614;10.226;2023-02-10T07:43:57;28.43;;;17.93;;
23800;SDS011;12081;48.614;10.226;2023-02-10T07:46:42;30.17;;;17.50;;
23800;SDS011;12081;48.614;10.226;2023-02-10T07:49:26;29.67;;;18.37;;
23800;SDS011;12081;48.614;10.226;2023-02-10T07:52:12;30.00;;;18.37;;
23800;SDS011;12081;48.614;10.226;2023-02-10T07:54:56;30.53;;;18.53;;
23800;SDS011;12081;48.614;10.226;2023-02-10T07:57:42;33.63;;;19.27;;
23800;SDS011;12081;48.614;10.226;2023-02-10T08:00:26;28.60;;;18.83;;
23800;SDS011;12081;48.614;10.226;2023-02-10T08:03:13;40.10;;;27.33;;
23800;SDS011;12081;48.614;10.226;2023-02-10T08:05:58;39.30;;;27.30;;
23800;SDS011;12081;48.614;10.226;2023-02-10T08:08:42;41.17;;;26.90;;
23800;SDS011;12081;48.614;10.226;2023-02-10T08:11:26;35.27;;;24.40;;
23800;SDS011;12081;48.614;10.226;2023-02-10T08:14:10;35.33;;;23.83;;
23800;SDS011;12081;48.614;10.226;2023-02-10T08:16:54;32.33;;;23.03;;
23800;SDS011;12081;48.614;10.226;2023-02-10T08:19:38;31.70;;;22.30;;
23800;SDS011;12081;48.614;10.226;2023-02-10T08:22:22;32.30;;;21.50;;
23800;SDS011;12081;48.614;10.226;2023-02-10T08:25:07;33.93;;;21.63;;
23800;SDS011;12081;48.614;10.226;2023-02-10T08:27:52;30.83;;;22.67;;
23800;SDS011;12081;48.614;10.226;2023-02-10T08:30:36;30.37;;;21.67;;
23800;SDS011;12081;48.614;10.226;2023-02-10T08:33:20;34.20;;;22.23;;
23800;SDS011;12081;48.614;10.226;2023-02-10T08:36:05;29.93;;;21.60;;
23800;SDS011;12081;48.614;10.226;2023-02-10T08:38:50;33.37;;;22.67;;
23800;SDS011;12081;48.614;10.226;2023-02-10T08:41:35;35.00;;;24.67;;
23800;SDS011;12081;48.614;10.226;2023-02-10T08:44:19;38.27;;;22.97;;
23800;SDS011;12081;48.614;10.226;2023-02-10T08:47:03;31.40;;;23.07;;
23800;SDS011;12081;48.614;10.226;2023-02-10T08:49:47;31.60;;;23.17;;
23800;SDS011;12081;48.614;10.226;2023-02-10T08:52:31;37.33;;;23.27;;
23800;SDS011;12081;48.614;10.226;2023-02-10T08:55:15;30.60;;;21.57;;
23800;SDS011;12081;48.614;10.226;2023-02-10T08:58:00;30.87;;;21.80;;
23800;SDS011;12081;48.614;10.226;2023-02-10T09:00:44;31.03;;;21.63;;
23800;SDS011;12081;48.614;10.226;2023-02-10T09:03:28;33.03;;;22.67;;
23800;SDS011;12081;48.614;10.226;2023-02-10T09:06:16;34.40;;;22.83;;
23800;SDS011;12081;48.614;10.226;2023-02-10T09:09:03;28.97;;;22.20;;
23800;SDS011;12081;48.614;10.226;2023-02-10T09:11:48;30.33;;;22.07;;
23800;SDS011;12081;48.614;10.226;2023-02-10T09:14:32;33.37;;;23.53;;
23800;SDS011;12081;48.614;10.226;2023-02-10T09:17:16;29.80;;;22.30;;
23800;SDS011;12081;48.614;10.226;2023-02-10T09:20:00;31.37;;;23.20;;
23800;SDS011;12081;48.614;10.226;2023-02-10T09:22:44;31.23;;;22.73;;
23800;SDS011;12081;48.614;10.226;2023-02-10T09:25:30;31.77;;;23.00;;
23800;SDS011;12081;48.614;10.226;2023-02-10T09:28:14;32.50;;;22.33;;
23800;SDS011;12081;48.614;10.226;2023-02-10T09:30:58;33.53;;;22.60;;
23800;SDS011;12081;48.614;10.226;2023-02-10T09:33:43;32.60;;;23.33;;
23800;SDS011;12081;48.614;10.226;2023-02-10T09:36:28;38.23;;;24.77;;
23800;SDS011;12081;48.614;10.226;2023-02-10T09:39:12;35.70;;;25.30;;
23800;SDS011;12081;48.614;10.226;2023-02-10T09:42:09;38.20;;;26.27;;
23800;SDS011;12081;48.614;10.226;2023-02-10T09:45:14;37.77;;;24.80;;
23800;SDS011;12081;48.614;10.226;2023-02-10T09:48:17;37.17;;;26.93;;
23800;SDS011;12081;48.614;10.226;2023-02-10T09:54:19;39.90;;;25.17;;
23800;SDS011;12081;48.614;10.226;2023-02-10T09:57:05;33.07;;;24.07;;
23800;SDS011;12081;48.614;10.226;2023-02-10T10:00:02;30.73;;;23.33;;
23800;SDS011;12081;48.614;10.226;2023-02-10T10:03:13;30.27;;;23.27;;
23800;SDS011;12081;48.614;10.226;2023-02-10T10:09:05;30.50;;;22.20;;
23800;SDS011;12081;48.614;10.226;2023-02-10T10:12:16;28.50;;;21.93;;
23800;SDS011;12081;48.614;10.226;2023-02-10T10:15:03;28.77;;;21.80;;
23800;SDS011;12081;48.614;10.226;2023-02-10T10:18:02;29.40;;;21.07;;
23800;SDS011;12081;48.614;10.226;2023-02-10T10:21:05;30.07;;;21.13;;
23800;SDS011;12081;48.614;10.226;2023-02-10T10:27:24;31.00;;;22.57;;
23800;SDS011;12081;48.614;10.226;2023-02-10T10:30:14;33.40;;;23.83;;
23800;SDS011;12081;48.614;10.226;2023-02-10T10:33:14;34.63;;;22.60;;
23800;SDS011;12081;48.614;10.226;2023-02-10T10:36:08;28.10;;;21.77;;
23800;SDS011;12081;48.614;10.226;2023-02-10T10:39:13;31.53;;;22.37;;
23800;SDS011;12081;48.614;10.226;2023-02-10T10:42:27;28.90;;;22.17;;
23800;SDS011;12081;48.614;10.226;2023-02-10T10:48:20;31.03;;;23.37;;
23800;SDS011;12081;48.614;10.226;2023-02-10T10:51:13;31.40;;;27.23;;
23800;SDS011;12081;48.614;10.226;2023-02-10T10:53:58;29.47;;;24.23;;
23800;SDS011;12081;48.614;10.226;2023-02-10T10:56:56;30.37;;;23.07;;
23800;SDS011;12081;48.614;10.226;2023-02-10T10:59:45;29.63;;;23.13;;
23800;SDS011;12081;48.614;10.226;2023-02-10T11:02:34;30.53;;;22.50;;
23800;SDS011;12081;48.614;10.226;2023-02-10T11:05:18;29.87;;;22.80;;
23800;SDS011;12081;48.614;10.226;2023-02-10T11:08:04;27.80;;;22.17;;
23800;SDS011;12081;48.614;10.226;2023-02-10T11:10:53;27.67;;;21.30;;
23800;SDS011;12081;48.614;10.226;2023-02-10T11:13:48;32.63;;;23.00;;
23800;SDS011;12081;48.614;10.226;2023-02-10T11:16:39;28.13;;;21.83;;
23800;SDS011;12081;48.614;10.226;2023-02-10T11:19:30;29.60;;;21.43;;
23800;SDS011;12081;48.614;10.226;2023-02-10T11:22:19;32.63;;;22.37;;
23800;SDS011;12081;48.614;10.226;2023-02-10T11:28:17;30.33;;;21.43;;
23800;SDS011;12081;48.614;10.226;2023-02-10T11:31:04;30.97;;;21.90;;
23800;SDS011;12081;48.614;10.226;2023-02-10T11:37:13;30.03;;;22.77;;
23800;SDS011;12081;48.614;10.226;2023-02-10T11:43:44;27.87;;;21.17;;
23800;SDS011;12081;48.614;10.226;2023-02-10T11:46:30;30.53;;;22.17;;
23800;SDS011;12081;48.614;10.226;2023-02-10T11:49:16;26.37;;;21.93;;
23800;SDS011;12081;48.614;10.226;2023-02-10T11:52:01;28.53;;;21.50;;
23800;SDS011;12081;48.614;10.226;2023-02-10T11:54:47;27.27;;;21.30;;
23800;SDS011;12081;48.614;10.226;2023-02-10T11:57:37;26.70;;;21.00;;
23800;SDS011;12081;48.614;10.226;2023-02-10T12:00:46;30.33;;;20.77;;
23800;SDS011;12081;48.614;10.226;2023-02-10T12:06:36;26.97;;;21.13;;
23800;SDS011;12081;48.614;10.226;2023-02-10T12:09:31;27.17;;;19.97;;
23800;SDS011;12081;48.614;10.226;2023-02-10T12:15:16;54.63;;;37.23;;
23800;SDS011;12081;48.614;10.226;2023-02-10T12:24:41;26.73;;;21.47;;
23800;SDS011;12081;48.614;10.226;2023-02-10T12:27:49;26.50;;;20.67;;
23800;SDS011;12081;48.614;10.226;2023-02-10T12:31:01;25.87;;;20.50;;
23800;SDS011;12081;48.614;10.226;2023-02-10T12:43:11;27.43;;;20.33;;
23800;SDS011;12081;48.614;10.226;2023-02-10T12:46:43;25.77;;;20.83;;
23800;SDS011;12081;48.614;10.226;2023-02-10T12:49:52;25.43;;;18.93;;
23800;SDS011;12081;48.614;10.226;2023-02-10T12:53:07;28.80;;;21.43;;
23800;SDS011;12081;48.614;10.226;2023-02-10T12:56:02;28.80;;;21.73;;
23800;SDS011;12081;48.614;10.226;2023-02-10T12:59:34;26.90;;;20.93;;
23800;SDS011;12081;48.614;10.226;2023-02-10T13:05:30;28.47;;;21.60;;
23800;SDS011;12081;48.614;10.226;2023-02-10T13:08:24;30.23;;;21.43;;
23800;SDS011;12081;48.614;10.226;2023-02-10T13:11:16;27.57;;;20.73;;
23800;SDS011;12081;48.614;10.226;2023-02-10T13:14:14;26.33;;;21.30;;
23800;SDS011;12081;48.614;10.226;2023-02-10T13:17:05;25.40;;;18.83;;
23800;SDS011;12081;48.614;10.226;2023-02-10T13:19:53;27.67;;;20.07;;
23800;SDS011;12081;48.614;10.226;2023-02-10T13:22:53;28.40;;;20.83;;
23800;SDS011;12081;48.614;10.226;2023-02-10T13:34:52;31.83;;;20.27;;
23800;SDS011;12081;48.614;10.226;2023-02-10T13:37:40;29.10;;;19.93;;
23800;SDS011;12081;48.614;10.226;2023-02-10T13:40:45;27.90;;;19.60;;
23800;SDS011;12081;48.614;10.226;2023-02-10T13:43:34;28.13;;;19.77;;
23800;SDS011;12081;48.614;10.226;2023-02-10T13:46:23;25.87;;;19.27;;
23800;SDS011;12081;48.614;10.226;2023-02-10T13:49:14;28.43;;;20.30;;
23800;SDS011;12081;48.614;10.226;2023-02-10T13:52:12;27.90;;;21.57;;
23800;SDS011;12081;48.614;10.226;2023-02-10T13:55:00;27.00;;;21.03;;
23800;SDS011;12081;48.614;10.226;2023-02-10T14:00:55;28.53;;;20.40;;
23800;SDS011;12081;48.614;10.226;2023-02-10T14:03:40;32.47;;;21.17;;
23800;SDS011;12081;48.614;10.226;2023-02-10T14:09:30;30.70;;;21.47;;
23800;SDS011;12081;48.614;10.226;2023-02-10T14:12:27;32.90;;;21.20;;
23800;SDS011;12081;48.614;10.226;2023-02-10T14:15:24;30.73;;;21.33;;
23800;SDS011;12081;48.614;10.226;2023-02-10T14:18:24;30.57;;;21.87;;
23800;SDS011;12081;48.614;10.226;2023-02-10T14:21:12;29.37;;;21.57;;
23800;SDS011;12081;48.614;10.226;2023-02-10T14:23:58;32.97;;;22.47;;
23800;SDS011;12081;48.614;10.226;2023-02-10T14:26:43;31.57;;;21.10;;
23800;SDS011;12081;48.614;10.226;2023-02-10T14:29:28;36.03;;;22.87;;
23800;SDS011;12081;48.614;10.226;2023-02-10T14:32:15;30.53;;;21.07;;
23800;SDS011;12081;48.614;10.226;2023-02-10T14:35:02;30.03;;;22.13;;
23800;SDS011;12081;48.614;10.226;2023-02-10T14:37:53;31.00;;;21.67;;
23800;SDS011;12081;48.614;10.226;2023-02-10T14:40:38;33.23;;;21.93;;
23800;SDS011;12081;48.614;10.226;2023-02-10T14:43:27;31.50;;;21.83;;
23800;SDS011;12081;48.614;10.226;2023-02-10T14:46:18;32.43;;;21.47;;
23800;SDS011;12081;48.614;10.226;2023-02-10T14:49:08;35.17;;;22.17;;
23800;SDS011;12081;48.614;10.226;2023-02-10T14:51:53;34.17;;;22.50;;
23800;SDS011;12081;48.614;10.226;2023-02-10T14:54:38;33.33;;;21.57;;
23800;SDS011;12081;48.614;10.226;2023-02-10T14:57:25;31.43;;;22.03;;
23800;SDS011;12081;48.614;10.226;2023-02-10T15:00:12;32.43;;;21.47;;
23800;SDS011;12081;48.614;10.226;2023-02-10T15:02:58;34.10;;;21.37;;
23800;SDS011;12081;48.614;10.226;2023-02-10T15:05:44;33.50;;;22.43;;
23800;SDS011;12081;48.614;10.226;2023-02-10T15:11:38;36.13;;;22.40;;
23800;SDS011;12081;48.614;10.226;2023-02-10T15:14:51;32.60;;;22.33;;
23800;SDS011;12081;48.614;10.226;2023-02-10T15:17:45;30.53;;;21.37;;
23800;SDS011;12081;48.614;10.226;2023-02-10T15:20:31;32.23;;;20.87;;
23800;SDS011;12081;48.614;10.226;2023-02-10T15:23:16;33.70;;;20.10;;
23800;SDS011;12081;48.614;10.226;2023-02-10T15:26:20;37.20;;;22.23;;
23800;SDS011;12081;48.614;10.226;2023-02-10T15:29:10;31.27;;;21.03;;
23800;SDS011;12081;48.614;10.226;2023-02-10T15:31:57;31.43;;;21.23;;
23800;SDS011;12081;48.614;10.226;2023-02-10T15:34:42;33.37;;;22.20;;
23800;SDS011;12081;48.614;10.226;2023-02-10T15:37:26;33.30;;;21.33;;
23800;SDS011;12081;48.614;10.226;2023-02-10T15:40:16;34.63;;;21.63;;
23800;SDS011;12081;48.614;10.226;2023-02-10T15:43:05;35.03;;;22.17;;
23800;SDS011;12081;48.614;10.226;2023-02-10T15:46:16;34.03;;;21.03;;
23800;SDS011;12081;48.614;10.226;2023-02-10T15:49:19;35.93;;;23.23;;
23800;SDS011;12081;48.614;10.226;2023-02-10T15:52:04;31.60;;;20.73;;
23800;SDS011;12081;48.614;10.226;2023-02-10T15:54:48;35.43;;;22.50;;
23800;SDS011;12081;48.614;10.226;2023-02-10T15:57:33;33.90;;;21.57;;
23800;SDS011;12081;48.614;10.226;2023-02-10T16:00:22;36.13;;;22.20;;
23800;SDS011;12081;48.614;10.226;2023-02-10T16:03:07;34.97;;;20.90;;
23800;SDS011;12081;48.614;10.226;2023-02-10T16:05:51;36.70;;;22.77;;
23800;SDS011;12081;48.614;10.226;2023-02-10T16:08:38;41.73;;;23.00;;
23800;SDS011;12081;48.614;10.226;2023-02-10T16:11:23;33.07;;;21.80;;
23800;SDS011;12081;48.614;10.226;2023-02-10T16:14:09;40.37;;;22.73;;
23800;SDS011;12081;48.614;10.226;2023-02-10T16:16:54;38.97;;;23.03;;
23800;SDS011;12081;48.614;10.226;2023-02-10T16:19:41;37.20;;;23.27;;
23800;SDS011;12081;48.614;10.226;2023-02-10T16:22:25;34.73;;;21.63;;
23800;SDS011;12081;48.614;10.226;2023-02-10T16:25:09;38.83;;;22.73;;
23800;SDS011;12081;48.614;10.226;2023-02-10T16:27:53;39.30;;;24.40;;
23800;SDS011;12081;48.614;10.226;2023-02-10T16:30:38;44.77;;;24.33;;
23800;SDS011;12081;48.614;10.226;2023-02-10T16:33:22;34.60;;;21.53;;
23800;SDS011;12081;48.614;10.226;2023-02-10T16:36:06;36.00;;;21.83;;
23800;SDS011;12081;48.614;10.226;2023-02-10T16:38:51;37.77;;;22.17;;
23800;SDS011;12081;48.614;10.226;2023-02-10T16:41:35;37.50;;;22.43;;
23800;SDS011;12081;48.614;10.226;2023-02-10T16:44:19;36.37;;;22.93;;
23800;SDS011;12081;48.614;10.226;2023-02-10T16:47:04;40.20;;;24.10;;
23800;SDS011;12081;48.614;10.226;2023-02-10T16:49:48;40.47;;;23.23;;
23800;SDS011;12081;48.614;10.226;2023-02-10T16:52:33;37.87;;;23.07;;
23800;SDS011;12081;48.614;10.226;2023-02-10T16:55:20;39.07;;;23.87;;
23800;SDS011;12081;48.614;10.226;2023-02-10T16:58:04;47.70;;;27.53;;
23800;SDS011;12081;48.614;10.226;2023-02-10T17:00:49;46.60;;;27.13;;
23800;SDS011;12081;48.614;10.226;2023-02-10T17:03:33;47.80;;;28.03;;
23800;SDS011;12081;48.614;10.226;2023-02-10T17:06:18;52.13;;;29.30;;
23800;SDS011;12081;48.614;10.226;2023-02-10T17:09:04;50.37;;;31.40;;
23800;SDS011;12081;48.614;10.226;2023-02-10T17:11:48;57.97;;;32.67;;
23800;SDS011;12081;48.614;10.226;2023-02-10T17:14:33;48.97;;;31.30;;
23800;SDS011;12081;48.614;10.226;2023-02-10T17:17:17;55.40;;;32.97;;
23800;SDS011;12081;48.614;10.226;2023-02-10T17:20:01;50.97;;;29.40;;
23800;SDS011;12081;48.614;10.226;2023-02-10T17:22:46;47.97;;;27.53;;
23800;SDS011;12081;48.614;10.226;2023-02-10T17:25:31;43.17;;;26.33;;
23800;SDS011;12081;48.614;10.226;2023-02-10T17:28:17;43.30;;;24.10;;
23800;SDS011;12081;48.614;10.226;2023-02-10T17:31:01;40.30;;;23.53;;
23800;SDS011;12081;48.614;10.226;2023-02-10T17:33:46;37.10;;;22.47;;
23800;SDS011;12081;48.614;10.226;2023-02-10T17:36:33;40.67;;;23.17;;
23800;SDS011;12081;48.614;10.226;2023-02-10T17:39:18;35.37;;;21.47;;
23800;SDS011;12081;48.614;10.226;2023-02-10T17:42:06;39.47;;;23.70;;